North Brookfield, MA (01535)

12:38 PM EDT on September 01, 2015 (GMT -0400)
APRSWXNET | | Change Station
CLOSE
Current Station
Personal Weather Station
Location: Brookfield, MA
Elevation: 682 ft
Nearby Weather Stations

Elev 682 ft 42.22 °N, 72.11 °W | Updated 18 minutes ago

Clear
Clear
81 °F
Feels Like 82 °F
N
0
Wind Variable Wind from ESE
Gusts 4.0 mph

Today
High -- | Low -- °F
--% Chance of Precip.
Yesterday
High -- | Low -- °F
Precip. -- in
6:13 AM 7:22 PM
Waning Gibbous, 88% visible
Pressure 30.07 in
Visibility 10.0 miles
Clouds Clear
Heat Index 82 °F
Dew Point 63 °F
Humidity 54%
Rainfall in
Snow Depth Not available.
UV 9 out of 12
Pollen 9.50 out of 12
Air Quality Not available.
Flu Activity Not available.
METAR KORH 011554Z VRB05KT 10SM CLR 26/14 A3009 RMK AO2 SLP183 T02560139
Pressure 30.07 in
Visibility 10.0 miles
Clouds Clear
Heat Index 82 °F
Dew Point 63 °F
Humidity 54%
Rainfall in
Snow Depth Not available.
UV 9 out of 12
Pollen 9.50 out of 12
Air Quality Not available.
Flu Activity Not available.
METAR KORH 011554Z VRB05KT 10SM CLR 26/14 A3009 RMK AO2 SLP183 T02560139

10-Day Weather Forecast

×

Almanac

Astronomy

Sep. 01, 2015 Rise Set
Actual Time
Civil Twilight
Nautical Twilight
Astronomical Twilight
Moon
Length of Visible Light
Length of Day
Tomorrow will be .
, % of the Moon is Illuminated

Today's Extremes

State Highs State Lows

Community

WunderPhotos

Upload Photos

1,851,548 photos uploaded!

WunderBlogs® & News

Nearby

Air Quality

  Air Quality AQ Index Pollutant
Not available.

Snow Depth

Station Depth Elevation

Earthquake Activity

City Distance Mag. Time & Date
Minimum magnitude displayed is 2.5.

Coastal Water Temperatures

Place Temperature

Stations

Nearby Weather Stations

Station Location Temp. Windchill Dew Point Humidity Wind Precip. Elev Updated Type